createdAt,value
2023-08-19T00:01:07.464Z,22.86
2023-08-19T00:04:20.166Z,23.13
2023-08-19T00:07:33.085Z,22.95
2023-08-19T00:10:45.995Z,22.93
2023-08-19T00:13:58.370Z,22.87
2023-08-19T00:17:11.069Z,22.58
2023-08-19T00:20:24.509Z,22.57
2023-08-19T00:23:37.184Z,22.76
2023-08-19T00:26:50.215Z,22.63
2023-08-19T00:30:04.515Z,22.40
2023-08-19T00:33:17.004Z,22.47
2023-08-19T00:36:29.778Z,22.35
2023-08-19T00:39:42.640Z,22.29
2023-08-19T00:42:55.398Z,22.15
2023-08-19T00:46:09.279Z,22.10
2023-08-19T00:49:22.252Z,21.95
2023-08-19T00:52:35.100Z,21.88
2023-08-19T00:55:47.795Z,22.01
2023-08-19T00:59:00.174Z,22.15
2023-08-19T01:02:12.869Z,22.02
2023-08-19T01:05:27.799Z,22.01
2023-08-19T01:09:05.399Z,21.96
2023-08-19T01:12:40.186Z,21.84
2023-08-19T01:16:09.784Z,21.93
2023-08-19T01:19:30.673Z,21.98
2023-08-19T01:23:04.961Z,21.97
2023-08-19T01:26:18.503Z,21.75
2023-08-19T01:29:31.306Z,21.67
2023-08-19T01:32:44.457Z,21.60
2023-08-19T01:36:22.590Z,21.59
2023-08-19T01:39:35.264Z,21.58
2023-08-19T01:42:47.961Z,21.54
2023-08-19T01:46:01.053Z,21.43
2023-08-19T01:49:13.781Z,21.30
2023-08-19T01:52:26.176Z,21.17
2023-08-19T01:55:39.234Z,21.26
2023-08-19T01:58:52.418Z,21.26
2023-08-19T02:02:05.136Z,21.19
2023-08-19T02:05:17.890Z,21.05
2023-08-19T02:08:30.337Z,21.04
2023-08-19T02:11:42.998Z,20.91
2023-08-19T02:14:55.671Z,20.94
2023-08-19T02:18:08.430Z,20.99
2023-08-19T02:21:21.079Z,21.03
2023-08-19T02:24:33.498Z,20.98
2023-08-19T02:27:46.175Z,21.01
2023-08-19T02:31:07.408Z,21.04
2023-08-19T02:34:20.138Z,20.92
2023-08-19T02:37:32.855Z,20.52
2023-08-19T02:40:52.137Z,20.42
2023-08-19T02:44:04.599Z,20.32
2023-08-19T02:47:17.253Z,20.32
2023-08-19T02:50:29.862Z,20.28
2023-08-19T02:53:42.722Z,20.49
2023-08-19T02:56:55.094Z,20.59
2023-08-19T03:00:08.574Z,20.62
2023-08-19T03:03:21.162Z,20.67
2023-08-19T03:06:34.447Z,20.71
2023-08-19T03:09:46.945Z,20.67
2023-08-19T03:13:00.367Z,20.64
2023-08-19T03:16:13.247Z,20.63
2023-08-19T03:19:27.262Z,20.64
2023-08-19T03:22:40.089Z,20.60
2023-08-19T03:25:52.825Z,20.63
2023-08-19T03:29:05.327Z,20.67
2023-08-19T03:32:18.060Z,20.70
2023-08-19T03:35:30.465Z,20.67
2023-08-19T03:38:43.159Z,20.66
2023-08-19T03:41:55.631Z,20.60
2023-08-19T03:45:08.721Z,20.51
2023-08-19T03:48:21.549Z,20.61
2023-08-19T03:51:34.231Z,20.63
2023-08-19T03:54:46.608Z,20.62
2023-08-19T03:57:59.378Z,20.62
2023-08-19T04:01:11.782Z,20.61
2023-08-19T04:04:24.812Z,20.64
2023-08-19T04:07:37.231Z,20.72
2023-08-19T04:10:49.937Z,20.76
2023-08-19T04:14:02.645Z,20.77
2023-08-19T04:17:16.064Z,20.87
2023-08-19T04:20:28.656Z,20.96
2023-08-19T04:23:41.333Z,21.09
2023-08-19T04:26:53.684Z,21.22
2023-08-19T04:30:06.897Z,21.01
2023-08-19T04:33:19.624Z,21.14
2023-08-19T04:36:33.045Z,21.12
2023-08-19T04:39:45.565Z,21.44
2023-08-19T04:42:58.874Z,21.57
2023-08-19T04:46:11.637Z,21.57
2023-08-19T04:49:24.600Z,21.66
2023-08-19T04:52:38.524Z,21.92
2023-08-19T04:56:01.066Z,22.16
2023-08-19T04:59:13.853Z,22.33
2023-08-19T05:02:26.783Z,22.45
2023-08-19T05:05:39.290Z,22.52
2023-08-19T05:08:52.451Z,22.77
2023-08-19T05:12:05.875Z,22.86
2023-08-19T05:15:18.726Z,22.98
2023-08-19T05:18:32.206Z,22.98
2023-08-19T05:21:45.226Z,23.20
2023-08-19T05:24:57.591Z,23.35
2023-08-19T05:28:11.333Z,23.22
2023-08-19T05:31:23.747Z,23.24
2023-08-19T05:34:36.454Z,23.32
2023-08-19T05:37:48.881Z,23.41
2023-08-19T05:41:01.571Z,23.27
2023-08-19T05:44:16.090Z,23.39
2023-08-19T05:47:30.526Z,23.25
2023-08-19T05:50:43.125Z,23.04
2023-08-19T05:53:59.480Z,22.69
2023-08-19T05:57:11.874Z,22.32
2023-08-19T06:00:24.609Z,22.34
2023-08-19T06:03:37.434Z,22.21
2023-08-19T06:06:54.997Z,22.16
2023-08-19T06:10:08.130Z,21.98
2023-08-19T06:13:20.541Z,22.09
2023-08-19T06:16:33.197Z,22.00
2023-08-19T06:19:45.610Z,21.87
2023-08-19T06:22:58.481Z,21.74
2023-08-19T06:26:10.865Z,21.77
2023-08-19T06:29:23.567Z,21.65
2023-08-19T06:32:36.257Z,21.56
2023-08-19T06:35:49.751Z,21.42
2023-08-19T06:39:05.769Z,21.46
2023-08-19T06:42:19.782Z,21.47
2023-08-19T06:45:32.148Z,21.38
2023-08-19T06:48:44.889Z,21.40
2023-08-19T06:51:57.506Z,21.51
2023-08-19T06:55:10.718Z,21.70
2023-08-19T06:58:26.551Z,21.73
2023-08-19T07:01:39.276Z,21.77
2023-08-19T07:04:51.787Z,22.03
2023-08-19T07:08:07.628Z,21.76
2023-08-19T07:11:20.327Z,21.67
2023-08-19T07:14:35.293Z,21.56
2023-08-19T07:17:48.602Z,21.48
2023-08-19T07:21:01.366Z,21.75
2023-08-19T07:24:14.154Z,21.49
2023-08-19T07:27:26.819Z,21.30
2023-08-19T07:30:39.679Z,21.15
2023-08-19T07:33:52.328Z,21.00
2023-08-19T07:37:05.138Z,20.76
2023-08-19T07:40:17.923Z,21.00
2023-08-19T07:43:30.297Z,20.70
2023-08-19T07:46:42.945Z,20.56
2023-08-19T07:49:55.325Z,20.72
2023-08-19T07:53:08.034Z,20.43
2023-08-19T07:56:20.521Z,20.15
2023-08-19T07:59:33.361Z,19.98
2023-08-19T08:02:45.930Z,19.97
2023-08-19T08:05:58.604Z,20.19
2023-08-19T08:09:12.078Z,19.99
2023-08-19T08:12:24.772Z,20.04
2023-08-19T08:15:37.210Z,20.27
2023-08-19T08:18:49.890Z,20.38
2023-08-19T08:22:03.091Z,20.21
2023-08-19T08:25:16.952Z,20.36
2023-08-19T08:28:29.333Z,20.34
2023-08-19T08:31:42.035Z,20.42
2023-08-19T08:34:54.515Z,20.34
2023-08-19T08:38:07.164Z,20.27
2023-08-19T08:41:19.582Z,20.34
2023-08-19T08:44:32.276Z,20.27
2023-08-19T08:47:44.724Z,20.23
2023-08-19T08:50:57.454Z,20.42
2023-08-19T08:54:09.830Z,20.73
2023-08-19T08:57:22.850Z,20.59
2023-08-19T09:00:35.325Z,20.60
2023-08-19T09:03:47.980Z,20.74
2023-08-19T09:07:09.935Z,20.80
2023-08-19T09:10:24.721Z,21.01
2023-08-19T09:13:37.124Z,21.04
2023-08-19T09:16:50.618Z,21.41
2023-08-19T09:20:03.330Z,21.39
2023-08-19T09:23:16.028Z,21.42
2023-08-19T09:26:28.433Z,21.31
2023-08-19T09:29:52.963Z,21.32
2023-08-19T09:33:05.578Z,21.47
2023-08-19T09:36:18.287Z,21.71
2023-08-19T09:39:36.625Z,21.78
2023-08-19T09:42:49.765Z,22.31
2023-08-19T09:46:02.150Z,22.14
2023-08-19T09:49:24.298Z,22.45
2023-08-19T09:52:36.725Z,22.57
2023-08-19T09:55:51.358Z,22.67
2023-08-19T09:59:04.447Z,22.68
2023-08-19T10:02:18.250Z,22.90
2023-08-19T10:05:32.315Z,23.37
2023-08-19T10:08:47.643Z,23.61
2023-08-19T10:12:00.978Z,23.93
2023-08-19T10:15:14.194Z,24.50
2023-08-19T10:18:28.473Z,24.86
2023-08-19T10:21:41.304Z,25.30
2023-08-19T10:24:53.957Z,25.26
2023-08-19T10:28:26.745Z,25.63
2023-08-19T10:31:39.692Z,26.31
2023-08-19T10:34:52.058Z,26.49
2023-08-19T10:38:14.259Z,27.19
2023-08-19T10:41:38.562Z,27.59
2023-08-19T10:44:53.427Z,28.10
2023-08-19T10:48:06.274Z,28.10
2023-08-19T10:51:19.642Z,28.66
2023-08-19T10:54:42.039Z,28.27
2023-08-19T10:57:54.888Z,28.16
2023-08-19T11:01:07.335Z,28.35
2023-08-19T11:04:20.240Z,28.88
2023-08-19T11:07:34.481Z,29.18
2023-08-19T11:10:47.724Z,29.62
2023-08-19T11:14:00.077Z,29.29
2023-08-19T11:17:14.551Z,29.86
2023-08-19T11:20:29.148Z,29.92
2023-08-19T11:23:41.796Z,30.18
2023-08-19T11:26:54.199Z,30.36
2023-08-19T11:30:10.722Z,30.68
2023-08-19T11:33:27.401Z,30.74
2023-08-19T11:36:40.739Z,30.91
2023-08-19T11:39:53.057Z,31.33
2023-08-19T11:43:09.053Z,31.05
2023-08-19T11:46:21.723Z,31.30
2023-08-19T11:49:34.505Z,31.77
2023-08-19T11:52:51.064Z,31.51
2023-08-19T11:56:04.351Z,31.50
2023-08-19T11:59:17.167Z,31.71
2023-08-19T12:02:29.855Z,32.01
2023-08-19T12:05:43.869Z,31.68
2023-08-19T12:08:56.265Z,31.40
2023-08-19T12:12:10.713Z,31.69
2023-08-19T12:15:23.133Z,31.73
2023-08-19T12:18:36.097Z,30.79
2023-08-19T12:21:48.625Z,31.35
2023-08-19T12:25:01.283Z,32.22
2023-08-19T12:28:13.615Z,32.32
2023-08-19T12:31:27.260Z,32.48
2023-08-19T12:34:39.644Z,32.62
2023-08-19T12:37:52.794Z,32.48
2023-08-19T12:41:06.503Z,32.37
2023-08-19T12:44:19.203Z,32.78
2023-08-19T12:47:31.590Z,32.07
2023-08-19T12:50:44.259Z,32.74
2023-08-19T12:53:56.630Z,32.82
2023-08-19T12:57:09.305Z,32.87
2023-08-19T13:00:25.087Z,32.78
2023-08-19T13:03:37.835Z,32.76
2023-08-19T13:06:50.106Z,33.25
2023-08-19T13:10:03.506Z,33.47
2023-08-19T13:13:15.861Z,33.89
2023-08-19T13:16:28.558Z,33.86
2023-08-19T13:19:42.156Z,33.94
2023-08-19T13:22:55.886Z,34.24
2023-08-19T13:26:08.260Z,34.41
2023-08-19T13:29:20.889Z,34.64
2023-08-19T13:32:33.525Z,34.60
2023-08-19T13:35:46.425Z,34.42
2023-08-19T13:38:58.768Z,34.29
2023-08-19T13:42:11.442Z,34.12
2023-08-19T13:45:23.845Z,34.18
2023-08-19T13:48:36.561Z,34.68
2023-08-19T13:51:52.210Z,34.66
2023-08-19T13:55:05.267Z,34.60
2023-08-19T13:58:17.617Z,34.93
2023-08-19T14:01:30.412Z,35.11
2023-08-19T14:04:43.670Z,35.23
2023-08-19T14:07:56.083Z,35.47
2023-08-19T14:11:11.968Z,35.75
2023-08-19T14:14:24.502Z,36.20
2023-08-19T14:17:37.901Z,36.06
2023-08-19T14:20:50.563Z,35.48
2023-08-19T14:24:03.253Z,35.73
2023-08-19T14:27:18.004Z,35.90
2023-08-19T14:30:30.636Z,35.33
2023-08-19T14:33:43.858Z,36.12
2023-08-19T14:36:56.588Z,36.25
2023-08-19T14:40:09.627Z,36.18
2023-08-19T14:43:22.275Z,36.00
2023-08-19T14:46:35.225Z,36.31
2023-08-19T14:49:49.048Z,36.53
2023-08-19T14:53:05.186Z,36.96
2023-08-19T14:56:17.757Z,37.25
2023-08-19T14:59:31.296Z,36.54
2023-08-19T15:02:51.071Z,36.63
2023-08-19T15:06:03.771Z,36.40
2023-08-19T15:09:16.490Z,36.77
2023-08-19T15:12:28.874Z,36.73
2023-08-19T15:15:41.604Z,36.82
2023-08-19T15:18:54.579Z,36.19
2023-08-19T15:22:07.276Z,36.27
2023-08-19T15:25:19.680Z,35.66
2023-08-19T15:28:32.359Z,36.44
2023-08-19T15:31:44.753Z,36.65
2023-08-19T15:34:57.426Z,35.43
2023-08-19T15:38:09.853Z,35.17
2023-08-19T15:41:22.603Z,36.05
2023-08-19T15:44:34.997Z,35.82
2023-08-19T15:47:47.709Z,35.22
2023-08-19T15:51:00.152Z,34.70
2023-08-19T15:54:12.804Z,34.79
2023-08-19T15:57:25.309Z,35.07
2023-08-19T16:00:38.025Z,35.31
2023-08-19T16:03:50.844Z,33.72
2023-08-19T16:07:06.249Z,33.10
2023-08-19T16:10:19.030Z,33.56
2023-08-19T16:13:31.498Z,33.88
2023-08-19T16:16:44.292Z,33.86
2023-08-19T16:19:56.758Z,34.24
2023-08-19T16:23:09.471Z,33.84
2023-08-19T16:26:21.857Z,33.12
2023-08-19T16:29:34.563Z,33.23
2023-08-19T16:32:47.224Z,33.40
2023-08-19T16:35:59.941Z,32.84
2023-08-19T16:39:12.573Z,33.59
2023-08-19T16:42:27.151Z,32.69
2023-08-19T16:45:39.521Z,32.28
2023-08-19T16:48:52.263Z,32.22
2023-08-19T16:52:04.946Z,32.05
2023-08-19T16:55:17.644Z,31.79
2023-08-19T16:58:30.220Z,32.06
2023-08-19T17:01:42.971Z,31.74
2023-08-19T17:04:55.354Z,32.17
2023-08-19T17:08:08.084Z,31.55
2023-08-19T17:11:20.452Z,31.19
2023-08-19T17:14:33.117Z,30.84
2023-08-19T17:17:45.604Z,30.86
2023-08-19T17:20:58.828Z,30.91
2023-08-19T17:24:11.307Z,30.57
2023-08-19T17:27:24.004Z,31.05
2023-08-19T17:30:36.786Z,30.87
2023-08-19T17:33:51.335Z,30.44
2023-08-19T17:37:03.751Z,30.43
2023-08-19T17:40:17.029Z,29.54
2023-08-19T17:43:32.823Z,29.71
2023-08-19T17:46:45.504Z,29.34
2023-08-19T17:49:58.142Z,28.80
2023-08-19T17:53:10.804Z,28.44
2023-08-19T17:56:23.428Z,28.37
2023-08-19T17:59:36.083Z,28.28
2023-08-19T18:02:48.541Z,28.13
2023-08-19T18:06:02.944Z,27.88
2023-08-19T18:09:20.092Z,27.77
2023-08-19T18:12:32.918Z,27.59
2023-08-19T18:15:45.822Z,27.40
2023-08-19T18:18:58.568Z,27.32
2023-08-19T18:22:11.022Z,27.15
2023-08-19T18:25:23.693Z,26.97
2023-08-19T18:28:36.104Z,26.77
2023-08-19T18:31:48.936Z,26.64
2023-08-19T18:35:01.323Z,26.47
2023-08-19T18:38:14.036Z,26.52
2023-08-19T18:41:26.439Z,26.42
2023-08-19T18:44:39.135Z,25.95
2023-08-19T18:48:01.647Z,26.20
2023-08-19T18:51:14.372Z,26.09
2023-08-19T18:54:28.077Z,25.82
2023-08-19T18:57:40.789Z,26.17
2023-08-19T19:00:53.208Z,25.85
2023-08-19T19:04:05.988Z,25.58
2023-08-19T19:07:18.805Z,25.45
2023-08-19T19:10:31.498Z,25.31
2023-08-19T19:13:43.872Z,25.24
2023-08-19T19:16:56.642Z,25.23
2023-08-19T19:20:09.247Z,25.12
2023-08-19T19:23:22.741Z,25.03
2023-08-19T19:26:36.492Z,25.06
2023-08-19T19:29:49.155Z,25.18
2023-08-19T19:33:01.618Z,25.32
2023-08-19T19:36:14.327Z,25.42
2023-08-19T19:39:26.820Z,25.24
2023-08-19T19:42:40.151Z,24.73
2023-08-19T19:45:53.649Z,24.83
2023-08-19T19:49:06.360Z,24.75
2023-08-19T19:52:19.236Z,24.59
2023-08-19T19:55:31.937Z,24.42
2023-08-19T19:58:45.224Z,24.37
2023-08-19T20:01:58.406Z,24.34
2023-08-19T20:05:11.250Z,24.34
2023-08-19T20:08:24.342Z,24.38
2023-08-19T20:11:37.020Z,24.38
2023-08-19T20:14:49.460Z,24.49
2023-08-19T20:18:02.161Z,24.31
2023-08-19T20:21:14.616Z,24.32
2023-08-19T20:24:27.342Z,24.15
2023-08-19T20:27:39.748Z,24.18
2023-08-19T20:30:52.446Z,24.15
2023-08-19T20:34:04.929Z,24.04
2023-08-19T20:37:17.622Z,23.88
2023-08-19T20:40:30.030Z,23.83
2023-08-19T20:43:44.830Z,23.51
2023-08-19T20:46:57.182Z,23.45
2023-08-19T20:50:10.126Z,23.40
2023-08-19T20:53:22.488Z,23.52
2023-08-19T20:56:35.218Z,23.42
2023-08-19T20:59:47.631Z,23.46
2023-08-19T21:03:00.289Z,23.42
2023-08-19T21:06:12.723Z,23.38
2023-08-19T21:09:25.476Z,23.15
2023-08-19T21:12:37.977Z,23.07
2023-08-19T21:15:54.073Z,22.85
2023-08-19T21:19:06.530Z,22.85
2023-08-19T21:22:19.243Z,22.77
2023-08-19T21:25:31.625Z,22.74
2023-08-19T21:28:44.341Z,22.69
2023-08-19T21:31:56.740Z,22.66
2023-08-19T21:35:09.500Z,22.90
2023-08-19T21:38:21.912Z,23.11
2023-08-19T21:41:34.657Z,22.96
2023-08-19T21:44:47.061Z,22.76
2023-08-19T21:47:59.805Z,22.77
2023-08-19T21:51:13.121Z,22.88
2023-08-19T21:54:25.785Z,23.00
2023-08-19T21:57:38.160Z,22.96
2023-08-19T22:00:50.919Z,22.86
2023-08-19T22:04:03.789Z,22.90
2023-08-19T22:07:16.184Z,22.86
2023-08-19T22:10:28.873Z,22.81
2023-08-19T22:13:41.282Z,23.08
2023-08-19T22:16:53.997Z,22.98
2023-08-19T22:20:06.954Z,22.89
2023-08-19T22:23:20.113Z,22.79
2023-08-19T22:26:32.496Z,22.59
2023-08-19T22:29:45.183Z,22.67
2023-08-19T22:32:57.623Z,22.54
2023-08-19T22:36:10.475Z,22.59
2023-08-19T22:39:22.996Z,22.58
2023-08-19T22:42:35.688Z,22.59
2023-08-19T22:45:48.042Z,22.47
2023-08-19T22:49:00.790Z,22.37
2023-08-19T22:52:13.273Z,22.43
2023-08-19T22:55:27.164Z,22.36
2023-08-19T22:58:39.584Z,22.37
2023-08-19T23:01:52.327Z,22.29
2023-08-19T23:05:04.972Z,22.33
2023-08-19T23:08:17.912Z,22.33
2023-08-19T23:11:30.317Z,22.31
2023-08-19T23:14:42.978Z,22.29
2023-08-19T23:21:45.893Z,22.28
2023-08-19T23:24:59.366Z,22.29
2023-08-19T23:28:11.832Z,22.31
2023-08-19T23:31:24.684Z,22.37
2023-08-19T23:34:37.102Z,22.24
2023-08-19T23:37:49.903Z,22.15
2023-08-19T23:41:02.281Z,22.22
2023-08-19T23:44:15.057Z,22.22
2023-08-19T23:47:28.007Z,22.09
2023-08-19T23:50:41.229Z,22.02
2023-08-19T23:53:54.669Z,21.93
2023-08-19T23:57:07.869Z,21.79
